createdAt,value
2022-10-04T00:01:54.162Z,99580.13
2022-10-04T00:04:29.019Z,99588.31
2022-10-04T00:07:14.428Z,99584.47
2022-10-04T00:09:57.609Z,99592.94
2022-10-04T00:12:50.258Z,99585.75
2022-10-04T00:15:34.995Z,99587.13
2022-10-04T00:18:43.491Z,99580.78
2022-10-04T00:21:11.139Z,99581.38
2022-10-04T00:23:38.578Z,99588.63
2022-10-04T00:26:22.802Z,99589.41
2022-10-04T00:28:51.037Z,99589.53
2022-10-04T00:31:24.880Z,99585.50
2022-10-04T00:34:18.001Z,99585.66
2022-10-04T00:36:55.392Z,99581.31
2022-10-04T00:39:35.025Z,99585.09
2022-10-04T00:42:20.243Z,99582.78
2022-10-04T00:45:08.424Z,99585.69
2022-10-04T00:47:59.048Z,99587.59
2022-10-04T00:50:36.216Z,99587.63
2022-10-04T00:53:27.186Z,99581.56
2022-10-04T00:55:59.549Z,99577.75
2022-10-04T00:58:39.092Z,99582.22
2022-10-04T01:01:07.093Z,99572.09
2022-10-04T01:03:41.496Z,99581.28
2022-10-04T01:06:11.589Z,99579.56
2022-10-04T01:08:53.082Z,99575.56
2022-10-04T01:11:31.587Z,99574.63
2022-10-04T01:14:11.726Z,99582.13
2022-10-04T01:16:40.164Z,99591.47
2022-10-04T01:19:28.626Z,99596.25
2022-10-04T01:22:32.608Z,99591.75
2022-10-04T01:25:00.489Z,99593.06
2022-10-04T01:27:44.621Z,99601.75
2022-10-04T01:30:18.266Z,99595.00
2022-10-04T01:32:46.046Z,99598.56
2022-10-04T01:35:16.333Z,99605.72
2022-10-04T01:37:44.029Z,99601.63
2022-10-04T01:40:12.261Z,99597.78
2022-10-04T01:43:09.010Z,99600.91
2022-10-04T01:45:50.703Z,99605.91
2022-10-04T01:48:26.265Z,99597.00
2022-10-04T01:51:11.612Z,99609.94
2022-10-04T01:53:53.611Z,99607.88
2022-10-04T01:56:28.129Z,99609.72
2022-10-04T01:59:05.405Z,99611.28
2022-10-04T02:01:51.228Z,99608.50
2022-10-04T02:04:35.978Z,99607.91
2022-10-04T02:07:10.490Z,99613.59
2022-10-04T02:09:43.779Z,99613.59
2022-10-04T02:12:17.500Z,99614.53
2022-10-04T02:14:53.204Z,99611.16
2022-10-04T02:17:33.131Z,99612.09
2022-10-04T02:20:02.702Z,99613.94
2022-10-04T02:22:31.395Z,99603.53
2022-10-04T02:25:01.845Z,99611.88
2022-10-04T02:27:31.420Z,99617.31
2022-10-04T02:30:07.805Z,99619.94
2022-10-04T02:32:55.083Z,99615.47
2022-10-04T02:35:31.029Z,99623.38
2022-10-04T02:38:14.415Z,99619.97
2022-10-04T02:41:12.668Z,99629.53
2022-10-04T02:44:16.324Z,99629.56
2022-10-04T02:46:47.833Z,99619.00
2022-10-04T02:49:34.816Z,99627.81
2022-10-04T02:52:29.310Z,99627.69
2022-10-04T02:55:07.033Z,99629.56
2022-10-04T02:57:35.931Z,99625.19
2022-10-04T03:00:20.671Z,99633.28
2022-10-04T03:03:21.566Z,99630.59
2022-10-04T03:06:04.480Z,99634.81
2022-10-04T03:08:37.426Z,99639.91
2022-10-04T03:11:06.237Z,99627.06
2022-10-04T03:13:34.687Z,99633.44
2022-10-04T03:16:02.449Z,99638.81
2022-10-04T03:18:32.339Z,99631.09
2022-10-04T03:21:06.691Z,99646.09
2022-10-04T03:23:35.439Z,99652.28
2022-10-04T03:26:16.723Z,99649.34
2022-10-04T03:28:46.001Z,99654.75
2022-10-04T03:31:15.422Z,99643.16
2022-10-04T03:33:45.312Z,99653.38
2022-10-04T03:36:17.936Z,99650.28
2022-10-04T03:38:48.808Z,99644.53
2022-10-04T03:41:16.985Z,99651.50
2022-10-04T03:43:50.289Z,99654.28
2022-10-04T03:46:20.180Z,99648.38
2022-10-04T03:48:52.960Z,99664.28
2022-10-04T03:51:26.512Z,99662.75
2022-10-04T03:53:59.880Z,99666.66
2022-10-04T03:56:30.116Z,99669.41
2022-10-04T03:58:58.748Z,99675.13
2022-10-04T04:01:41.561Z,99670.66
2022-10-04T04:04:53.590Z,99666.94
2022-10-04T04:07:28.517Z,99675.84
2022-10-04T04:10:07.548Z,99680.88
2022-10-04T04:12:56.316Z,99683.63
2022-10-04T04:15:30.519Z,99696.16
2022-10-04T04:18:06.314Z,99694.72
2022-10-04T04:20:38.996Z,99697.34
2022-10-04T04:23:32.154Z,99700.00
2022-10-04T04:26:41.102Z,99705.25
2022-10-04T04:29:14.480Z,99698.28
2022-10-04T04:31:52.313Z,99699.25
2022-10-04T04:34:24.948Z,99708.19
2022-10-04T04:37:01.182Z,99705.59
2022-10-04T04:39:41.282Z,99704.69
2022-10-04T04:42:15.532Z,99703.88
2022-10-04T04:44:58.828Z,99702.50
2022-10-04T04:47:40.780Z,99709.47
2022-10-04T04:50:18.601Z,99705.28
2022-10-04T04:53:10.126Z,99700.19
2022-10-04T04:56:02.967Z,99707.78
2022-10-04T04:58:38.168Z,99706.06
2022-10-04T05:01:28.929Z,99711.34
2022-10-04T05:04:05.946Z,99716.25
2022-10-04T05:06:38.647Z,99713.03
2022-10-04T05:09:14.709Z,99722.94
2022-10-04T05:11:42.396Z,99725.72
2022-10-04T05:14:14.314Z,99732.66
2022-10-04T05:16:54.261Z,99731.28
2022-10-04T05:19:32.582Z,99741.81
2022-10-04T05:22:07.702Z,99735.94
2022-10-04T05:24:44.457Z,99737.19
2022-10-04T05:27:35.035Z,99748.44
2022-10-04T05:30:16.543Z,99748.78
2022-10-04T05:33:14.610Z,99757.91
2022-10-04T05:36:02.808Z,99763.56
2022-10-04T05:39:03.317Z,99765.97
2022-10-04T05:41:40.623Z,99774.31
2022-10-04T05:44:32.064Z,99774.66
2022-10-04T05:47:07.092Z,99779.00
2022-10-04T05:49:46.573Z,99783.16
2022-10-04T05:52:33.332Z,99784.59
2022-10-04T05:55:27.403Z,99788.47
2022-10-04T05:58:31.902Z,99788.78
2022-10-04T06:02:14.842Z,99791.78
2022-10-04T06:04:58.711Z,99795.78
2022-10-04T06:07:42.892Z,99802.78
2022-10-04T06:10:52.950Z,99812.84
2022-10-04T06:13:52.147Z,99807.13
2022-10-04T06:16:49.573Z,99800.09
2022-10-04T06:19:45.052Z,99815.41
2022-10-04T06:22:26.898Z,99816.34
2022-10-04T06:24:57.700Z,99812.59
2022-10-04T06:27:36.063Z,99823.34
2022-10-04T06:30:15.037Z,99813.69
2022-10-04T06:33:29.376Z,99826.03
2022-10-04T06:36:16.491Z,99820.75
2022-10-04T06:39:08.405Z,99831.34
2022-10-04T06:42:16.807Z,99845.44
2022-10-04T06:45:31.240Z,99840.63
2022-10-04T06:48:29.016Z,99840.19
2022-10-04T06:51:02.616Z,99841.09
2022-10-04T06:53:54.835Z,99844.25
2022-10-04T06:56:44.982Z,99842.31
2022-10-04T06:59:56.577Z,99842.75
2022-10-04T07:02:34.703Z,99845.84
2022-10-04T07:05:21.731Z,99849.81
2022-10-04T07:08:31.135Z,99843.22
2022-10-04T07:11:23.390Z,99864.06
2022-10-04T07:13:59.500Z,99859.97
2022-10-04T07:16:35.389Z,99852.25
2022-10-04T07:19:25.228Z,99853.81
2022-10-04T07:22:08.051Z,99859.09
2022-10-04T07:25:16.689Z,99854.25
2022-10-04T07:28:35.437Z,99866.00
2022-10-04T07:31:20.674Z,99861.63
2022-10-04T07:33:56.301Z,99856.50
2022-10-04T07:36:57.124Z,99861.75
2022-10-04T07:39:48.444Z,99871.41
2022-10-04T07:42:27.927Z,99866.03
2022-10-04T07:45:15.391Z,99871.06
2022-10-04T07:47:43.259Z,99860.28
2022-10-04T07:50:25.005Z,99869.16
2022-10-04T07:53:08.643Z,99864.16
2022-10-04T07:56:03.549Z,99871.50
2022-10-04T07:59:13.740Z,99866.69
2022-10-04T08:02:31.411Z,99872.78
2022-10-04T08:05:20.381Z,99878.19
2022-10-04T08:08:13.811Z,99873.56
2022-10-04T08:11:19.924Z,99871.84
2022-10-04T08:14:05.131Z,99865.31
2022-10-04T08:16:58.532Z,99878.78
2022-10-04T08:19:50.464Z,99885.41
2022-10-04T08:22:58.586Z,99880.84
2022-10-04T08:26:01.377Z,99882.44
2022-10-04T08:29:02.370Z,99887.50
2022-10-04T08:32:05.624Z,99884.81
2022-10-04T08:35:19.577Z,99888.75
2022-10-04T08:38:09.737Z,99886.16
2022-10-04T08:41:26.289Z,99886.91
2022-10-04T08:44:29.214Z,99887.56
2022-10-04T08:47:29.430Z,99883.94
2022-10-04T08:50:26.079Z,99887.59
2022-10-04T08:53:47.525Z,99892.16
2022-10-04T08:56:49.392Z,99889.22
2022-10-04T08:59:19.762Z,99891.69
2022-10-04T09:02:48.451Z,99907.69
2022-10-04T09:05:36.882Z,99901.94
2022-10-04T09:08:40.659Z,99896.59
2022-10-04T09:11:36.136Z,99900.91
2022-10-04T09:15:14.542Z,99901.00
2022-10-04T09:18:11.934Z,99901.75
2022-10-04T09:21:25.645Z,99899.25
2022-10-04T09:34:38.862Z,99901.25
2022-10-04T09:37:23.921Z,99902.19
2022-10-04T09:40:28.723Z,99898.59
2022-10-04T09:43:29.507Z,99907.13
2022-10-04T09:46:28.576Z,99908.88
2022-10-04T09:49:32.720Z,99899.41
2022-10-04T09:52:15.478Z,99894.00
2022-10-04T09:54:56.858Z,99900.66
2022-10-04T09:58:04.163Z,99910.53
2022-10-04T10:00:50.141Z,99904.41
2022-10-04T10:03:41.968Z,99897.84
2022-10-04T10:06:52.283Z,99910.28
2022-10-04T10:10:04.413Z,99907.91
2022-10-04T10:13:28.859Z,99915.81
2022-10-04T10:16:08.125Z,99915.03
2022-10-04T10:19:13.126Z,99906.16
2022-10-04T10:22:11.371Z,99919.38
2022-10-04T10:25:03.845Z,99907.19
2022-10-04T10:28:15.224Z,99908.19
2022-10-04T10:31:21.838Z,99915.59
2022-10-04T10:34:46.767Z,99900.59
2022-10-04T10:37:47.317Z,99900.47
2022-10-04T10:40:16.685Z,99903.13
2022-10-04T10:43:04.749Z,99902.72
2022-10-04T10:45:45.887Z,99907.22
2022-10-04T10:48:43.961Z,99904.94
2022-10-04T10:51:20.730Z,99915.94
2022-10-04T10:54:14.221Z,99899.25
2022-10-04T10:57:10.180Z,99909.41
2022-10-04T11:00:14.229Z,99902.16
2022-10-04T11:03:13.131Z,99903.78
2022-10-04T11:06:08.598Z,99914.44
2022-10-04T11:09:19.725Z,99912.56
2022-10-04T11:12:26.911Z,99914.03
2022-10-04T11:15:03.308Z,99916.56
2022-10-04T11:18:17.912Z,99919.06
2022-10-04T11:20:48.104Z,99918.53
2022-10-04T11:23:51.978Z,99909.13
2022-10-04T11:26:54.500Z,99909.94
2022-10-04T11:30:09.819Z,99915.06
2022-10-04T11:32:59.595Z,99915.69
2022-10-04T11:36:08.225Z,99916.59
2022-10-04T11:39:03.683Z,99917.34
2022-10-04T11:41:50.346Z,99915.06
2022-10-04T11:44:31.093Z,99917.63
2022-10-04T11:47:28.970Z,99923.72
2022-10-04T11:50:03.904Z,99910.34
2022-10-04T11:53:39.492Z,99914.66
2022-10-04T11:56:25.215Z,99923.69
2022-10-04T11:59:12.526Z,99918.41
2022-10-04T12:02:21.472Z,99909.31
2022-10-04T12:05:28.516Z,99912.38
2022-10-04T12:08:27.684Z,99914.03
2022-10-04T12:11:25.724Z,99906.63
2022-10-04T12:14:33.253Z,99904.81
2022-10-04T12:17:44.458Z,99907.44
2022-10-04T12:20:43.248Z,99916.59
2022-10-04T12:24:06.372Z,99914.38
2022-10-04T12:27:03.926Z,99913.56
2022-10-04T12:30:54.309Z,99905.00
2022-10-04T12:33:31.997Z,99906.75
2022-10-04T12:36:34.624Z,99901.41
2022-10-04T12:39:20.652Z,99908.09
2022-10-04T12:42:48.671Z,99906.75
2022-10-04T12:45:49.906Z,99910.75
2022-10-04T12:48:26.435Z,99909.47
2022-10-04T12:51:14.849Z,99911.94
2022-10-04T12:54:10.757Z,99912.34
2022-10-04T12:57:10.356Z,99915.66
2022-10-04T13:00:14.395Z,99912.91
2022-10-04T13:03:18.994Z,99922.75
2022-10-04T13:06:19.648Z,99916.44
2022-10-04T13:09:10.346Z,99906.22
2022-10-04T13:12:02.349Z,99920.75
2022-10-04T13:15:23.752Z,99921.81
2022-10-04T13:18:18.146Z,99927.03
2022-10-04T13:20:57.702Z,99913.50
2022-10-04T13:23:45.910Z,99923.38
2022-10-04T13:26:44.546Z,99916.47
2022-10-04T13:29:30.265Z,99927.97
2022-10-04T13:32:07.937Z,99928.19
2022-10-04T13:34:55.406Z,99924.25
2022-10-04T13:38:18.519Z,99929.94
2022-10-04T13:41:09.123Z,99928.75
2022-10-04T13:44:20.156Z,99932.06
2022-10-04T13:47:04.995Z,99928.22
2022-10-04T13:50:03.837Z,99932.13
2022-10-04T13:53:43.186Z,99934.56
2022-10-04T13:56:37.130Z,99934.63
2022-10-04T13:59:49.183Z,99936.97
2022-10-04T14:03:08.401Z,99942.13
2022-10-04T14:08:56.409Z,99946.47
2022-10-04T14:12:19.371Z,99941.09
2022-10-04T14:15:41.260Z,99950.72
2022-10-04T14:18:49.369Z,99952.22
2022-10-04T14:22:03.884Z,99954.44
2022-10-04T14:24:49.891Z,99959.91
2022-10-04T14:27:48.443Z,99969.50
2022-10-04T14:30:30.873Z,99963.22
2022-10-04T14:33:23.769Z,99960.19
2022-10-04T14:36:04.704Z,99967.59
2022-10-04T14:39:13.834Z,99966.56
2022-10-04T14:42:48.510Z,99970.41
2022-10-04T14:45:39.004Z,99953.34
2022-10-04T14:48:50.260Z,99953.97
2022-10-04T14:51:57.367Z,99959.78
2022-10-04T14:54:29.197Z,99952.25
2022-10-04T14:57:22.887Z,99953.22
2022-10-04T15:00:16.302Z,99958.41
2022-10-04T15:03:30.966Z,99966.09
2022-10-04T15:06:49.602Z,99962.81
2022-10-04T15:09:52.475Z,99962.22
2022-10-04T15:12:58.377Z,99965.31
2022-10-04T15:15:21.342Z,99962.88
2022-10-04T15:17:51.978Z,99966.16
2022-10-04T15:20:40.658Z,99976.22
2022-10-04T15:23:13.566Z,99980.13
2022-10-04T15:25:54.522Z,99976.84
2022-10-04T15:29:16.000Z,99982.31
2022-10-04T15:31:47.215Z,99985.66
2022-10-04T15:34:39.296Z,99987.72
2022-10-04T15:37:27.885Z,99989.13
2022-10-04T15:40:16.690Z,99987.91
2022-10-04T15:43:10.737Z,99985.13
2022-10-04T15:46:03.459Z,99990.47
2022-10-04T15:49:25.020Z,99992.84
2022-10-04T15:52:26.929Z,100003.72
2022-10-04T15:55:53.033Z,100001.91
2022-10-04T15:58:54.703Z,100006.88
2022-10-04T16:02:10.114Z,100006.97
2022-10-04T16:05:25.716Z,100007.47
2022-10-04T16:08:16.426Z,100021.78
2022-10-04T16:11:30.668Z,100031.16
2022-10-04T16:14:06.991Z,100025.84
2022-10-04T16:16:39.946Z,100035.00
2022-10-04T16:20:07.732Z,100035.31
2022-10-04T16:22:40.057Z,100048.09
2022-10-04T16:25:26.654Z,100055.25
2022-10-04T16:28:00.333Z,100058.03
2022-10-04T16:30:38.692Z,100070.94
2022-10-04T16:33:39.453Z,100076.09
2022-10-04T16:36:34.758Z,100075.13
2022-10-04T16:39:23.026Z,100074.69
2022-10-04T16:42:02.744Z,100081.72
2022-10-04T16:44:53.984Z,100076.78
2022-10-04T16:47:48.484Z,100089.38
2022-10-04T16:51:21.882Z,100093.91
2022-10-04T16:54:04.953Z,100098.91
2022-10-04T16:57:00.410Z,100101.34
2022-10-04T17:00:00.862Z,100102.72
2022-10-04T17:03:07.164Z,100113.44
2022-10-04T17:06:19.085Z,100111.66
2022-10-04T17:09:31.027Z,100109.00
2022-10-04T17:12:06.709Z,100116.81
2022-10-04T17:14:43.707Z,100128.75
2022-10-04T17:17:45.791Z,100129.97
2022-10-04T17:20:23.365Z,100130.72
2022-10-04T17:23:12.854Z,100137.88
2022-10-04T17:26:14.366Z,100138.81
2022-10-04T17:29:04.572Z,100141.03
2022-10-04T17:31:47.838Z,100156.59
2022-10-04T17:34:34.098Z,100152.94
2022-10-04T17:37:38.003Z,100153.03
2022-10-04T17:40:17.466Z,100150.06
2022-10-04T17:43:35.629Z,100164.41
2022-10-04T17:46:12.568Z,100163.72
2022-10-04T17:49:15.647Z,100167.53
2022-10-04T17:52:24.341Z,100166.25
2022-10-04T17:55:15.988Z,100174.84
2022-10-04T17:58:13.328Z,100184.59
2022-10-04T18:01:08.086Z,100198.22
2022-10-04T18:04:18.313Z,100198.09
2022-10-04T18:07:09.933Z,100200.22
2022-10-04T18:09:52.973Z,100203.72
2022-10-04T18:12:45.550Z,100213.50
2022-10-04T18:15:41.947Z,100214.28
2022-10-04T18:18:19.154Z,100212.25
2022-10-04T18:21:07.681Z,100217.31
2022-10-04T18:23:42.673Z,100220.94
2022-10-04T18:26:19.067Z,100229.84
2022-10-04T18:28:48.972Z,100231.47
2022-10-04T18:31:42.746Z,100229.38
2022-10-04T18:34:32.201Z,100237.34
2022-10-04T18:37:40.871Z,100245.75
2022-10-04T18:40:29.137Z,100245.41
2022-10-04T18:43:01.995Z,100255.09
2022-10-04T18:45:39.233Z,100256.91
2022-10-04T18:48:18.871Z,100256.16
2022-10-04T18:50:48.551Z,100263.41
2022-10-04T18:53:44.193Z,100264.06
2022-10-04T18:56:13.866Z,100253.94
2022-10-04T18:59:32.027Z,100270.56
2022-10-04T19:02:34.884Z,100274.75
2022-10-04T19:05:42.317Z,100261.72
2022-10-04T19:08:40.374Z,100270.41
2022-10-04T19:11:22.437Z,100281.44
2022-10-04T19:14:23.358Z,100287.31
2022-10-04T19:17:47.959Z,100282.22
2022-10-04T19:20:36.312Z,100290.28
2022-10-04T19:23:34.976Z,100291.06
2022-10-04T19:26:31.650Z,100286.88
2022-10-04T19:29:50.472Z,100288.41
2022-10-04T19:33:02.030Z,100295.72
2022-10-04T19:35:50.436Z,100292.16
2022-10-04T19:38:53.584Z,100302.69
2022-10-04T19:41:45.555Z,100295.84
2022-10-04T19:44:37.617Z,100301.91
2022-10-04T19:47:45.149Z,100304.69
2022-10-04T19:50:45.234Z,100304.53
2022-10-04T19:53:37.060Z,100296.31
2022-10-04T19:56:18.387Z,100305.31
2022-10-04T19:59:33.668Z,100304.19
2022-10-04T20:02:01.393Z,100304.19
2022-10-04T20:04:35.058Z,100309.16
2022-10-04T20:07:18.331Z,100309.00
2022-10-04T20:09:52.802Z,100320.06
2022-10-04T20:12:42.002Z,100314.03
2022-10-04T20:15:27.495Z,100322.38
2022-10-04T20:17:56.653Z,100310.31
2022-10-04T20:20:39.257Z,100309.84
2022-10-04T20:23:08.757Z,100326.91
2022-10-04T20:25:49.287Z,100321.28
2022-10-04T20:28:40.310Z,100330.38
2022-10-04T20:31:50.863Z,100330.97
2022-10-04T20:34:38.676Z,100326.75
2022-10-04T20:37:09.177Z,100324.69
2022-10-04T20:39:43.316Z,100328.75
2022-10-04T20:42:38.910Z,100330.97
2022-10-04T20:45:13.192Z,100335.50
2022-10-04T20:47:48.321Z,100333.91
2022-10-04T20:50:42.348Z,100331.31
2022-10-04T20:53:21.782Z,100334.31
2022-10-04T20:55:54.203Z,100334.53
2022-10-04T20:58:35.937Z,100339.00
2022-10-04T21:01:37.864Z,100340.38
2022-10-04T21:04:42.893Z,100345.34
2022-10-04T21:07:25.829Z,100354.09
2022-10-04T21:10:08.505Z,100363.91
2022-10-04T21:12:36.110Z,100360.63
2022-10-04T21:15:21.224Z,100359.22
2022-10-04T21:18:07.737Z,100355.00
2022-10-04T21:20:52.063Z,100357.19
2022-10-04T21:23:31.507Z,100356.72
2022-10-04T21:26:24.586Z,100353.75
2022-10-04T21:28:59.720Z,100350.97
2022-10-04T21:31:27.296Z,100350.06
2022-10-04T21:33:54.882Z,100348.16
2022-10-04T21:36:22.457Z,100349.09
2022-10-04T21:38:50.237Z,100346.75
2022-10-04T21:41:17.868Z,100349.06
2022-10-04T21:43:45.546Z,100356.13
2022-10-04T21:46:17.851Z,100353.31
2022-10-04T21:48:47.705Z,100360.09
2022-10-04T21:51:15.528Z,100359.34
2022-10-04T21:53:43.142Z,100367.53
2022-10-04T21:56:10.757Z,100365.25
2022-10-04T21:58:38.267Z,100364.31
2022-10-04T22:01:06.323Z,100368.19
2022-10-04T22:03:34.100Z,100370.81
2022-10-04T22:06:01.798Z,100375.63
2022-10-04T22:08:29.402Z,100382.38
2022-10-04T22:10:57.922Z,100375.03
2022-10-04T22:13:27.014Z,100383.16
2022-10-04T22:15:55.399Z,100378.91
2022-10-04T22:18:23.018Z,100373.78
2022-10-04T22:20:50.630Z,100383.13
2022-10-04T22:23:24.568Z,100377.13
2022-10-04T22:25:53.578Z,100384.44
2022-10-04T22:28:24.796Z,100389.09
2022-10-04T22:30:55.777Z,100387.28
2022-10-04T22:33:39.736Z,100390.88
2022-10-04T22:36:18.347Z,100391.81
2022-10-04T22:39:08.908Z,100396.50
2022-10-04T22:41:40.959Z,100396.81
2022-10-04T22:44:19.678Z,100404.41
2022-10-04T22:46:53.899Z,100405.59
2022-10-04T22:49:32.431Z,100411.50
2022-10-04T22:52:14.094Z,100409.84
2022-10-04T22:54:49.079Z,100403.31
2022-10-04T22:57:19.321Z,100403.50
2022-10-04T22:59:52.961Z,100410.25
2022-10-04T23:02:28.845Z,100410.56
2022-10-04T23:05:01.556Z,100417.25
2022-10-04T23:07:29.788Z,100418.63
2022-10-04T23:09:57.359Z,100421.66
2022-10-04T23:12:24.903Z,100422.34
2022-10-04T23:14:52.619Z,100416.06
2022-10-04T23:17:30.784Z,100420.13
2022-10-04T23:20:07.530Z,100419.16
2022-10-04T23:22:35.333Z,100423.16
2022-10-04T23:25:06.365Z,100428.69
2022-10-04T23:27:35.110Z,100423.34
2022-10-04T23:30:03.897Z,100434.19
2022-10-04T23:32:33.468Z,100435.94
2022-10-04T23:35:02.616Z,100438.03
2022-10-04T23:37:33.163Z,100440.16
2022-10-04T23:40:01.384Z,100446.78
2022-10-04T23:42:32.536Z,100451.25
2022-10-04T23:45:02.896Z,100451.25
2022-10-04T23:47:36.589Z,100455.53
2022-10-04T23:50:34.733Z,100450.84
2022-10-04T23:53:06.609Z,100456.00
2022-10-04T23:55:41.918Z,100451.84
2022-10-04T23:58:21.084Z,100459.13
